sensor_id;sensor_type;location;lat;lon;timestamp;P1;durP1;ratioP1;P2;durP2;ratioP2
14342;SDS011;7255;53.596;9.960;2023-06-10T00:01:49;8.75;;;3.30;;
14342;SDS011;7255;53.596;9.960;2023-06-10T00:04:15;7.75;;;3.97;;
14342;SDS011;7255;53.596;9.960;2023-06-10T00:06:42;6.43;;;3.45;;
14342;SDS011;7255;53.596;9.960;2023-06-10T00:09:09;7.57;;;3.92;;
14342;SDS011;7255;53.596;9.960;2023-06-10T00:11:37;5.05;;;3.87;;
14342;SDS011;7255;53.596;9.960;2023-06-10T00:14:04;7.10;;;3.95;;
14342;SDS011;7255;53.596;9.960;2023-06-10T00:16:30;8.40;;;4.22;;
14342;SDS011;7255;53.596;9.960;2023-06-10T00:18:56;5.53;;;3.30;;
14342;SDS011;7255;53.596;9.960;2023-06-10T00:21:25;7.18;;;3.08;;
14342;SDS011;7255;53.596;9.960;2023-06-10T00:23:52;5.50;;;3.65;;
14342;SDS011;7255;53.596;9.960;2023-06-10T00:26:18;5.65;;;3.58;;
14342;SDS011;7255;53.596;9.960;2023-06-10T00:28:46;4.25;;;3.70;;
14342;SDS011;7255;53.596;9.960;2023-06-10T00:31:12;5.28;;;3.60;;
14342;SDS011;7255;53.596;9.960;2023-06-10T00:33:39;5.85;;;2.90;;
14342;SDS011;7255;53.596;9.960;2023-06-10T00:36:05;5.00;;;3.60;;
14342;SDS011;7255;53.596;9.960;2023-06-10T00:38:31;4.72;;;2.92;;
14342;SDS011;7255;53.596;9.960;2023-06-10T00:40:58;5.85;;;3.30;;
14342;SDS011;7255;53.596;9.960;2023-06-10T00:43:24;6.53;;;3.40;;
14342;SDS011;7255;53.596;9.960;2023-06-10T00:45:52;5.40;;;3.05;;
14342;SDS011;7255;53.596;9.960;2023-06-10T00:48:19;7.57;;;3.10;;
14342;SDS011;7255;53.596;9.960;2023-06-10T00:50:46;5.70;;;3.03;;
14342;SDS011;7255;53.596;9.960;2023-06-10T00:53:13;6.55;;;3.35;;
14342;SDS011;7255;53.596;9.960;2023-06-10T00:55:40;8.88;;;3.05;;
14342;SDS011;7255;53.596;9.960;2023-06-10T00:58:07;5.93;;;2.80;;
14342;SDS011;7255;53.596;9.960;2023-06-10T01:00:34;4.07;;;2.55;;
14342;SDS011;7255;53.596;9.960;2023-06-10T01:03:01;3.05;;;2.72;;
14342;SDS011;7255;53.596;9.960;2023-06-10T01:05:32;5.07;;;3.33;;
14342;SDS011;7255;53.596;9.960;2023-06-10T01:08:00;6.00;;;3.15;;
14342;SDS011;7255;53.596;9.960;2023-06-10T01:10:32;10.02;;;3.60;;
14342;SDS011;7255;53.596;9.960;2023-06-10T01:13:02;3.83;;;2.70;;
14342;SDS011;7255;53.596;9.960;2023-06-10T01:15:29;5.55;;;3.00;;
14342;SDS011;7255;53.596;9.960;2023-06-10T01:17:57;5.37;;;2.90;;
14342;SDS011;7255;53.596;9.960;2023-06-10T01:20:28;5.12;;;2.70;;
14342;SDS011;7255;53.596;9.960;2023-06-10T01:22:58;4.85;;;2.75;;
14342;SDS011;7255;53.596;9.960;2023-06-10T01:25:26;4.93;;;3.03;;
14342;SDS011;7255;53.596;9.960;2023-06-10T01:27:54;4.18;;;2.80;;
14342;SDS011;7255;53.596;9.960;2023-06-10T01:30:29;5.12;;;3.12;;
14342;SDS011;7255;53.596;9.960;2023-06-10T01:33:02;6.18;;;3.10;;
14342;SDS011;7255;53.596;9.960;2023-06-10T01:35:35;9.85;;;2.58;;
14342;SDS011;7255;53.596;9.960;2023-06-10T01:38:04;5.87;;;2.92;;
14342;SDS011;7255;53.596;9.960;2023-06-10T01:40:32;5.97;;;2.95;;
14342;SDS011;7255;53.596;9.960;2023-06-10T01:42:59;7.15;;;2.95;;
14342;SDS011;7255;53.596;9.960;2023-06-10T01:45:26;4.12;;;2.72;;
14342;SDS011;7255;53.596;9.960;2023-06-10T01:47:52;4.93;;;2.83;;
14342;SDS011;7255;53.596;9.960;2023-06-10T01:50:18;5.10;;;2.42;;
14342;SDS011;7255;53.596;9.960;2023-06-10T01:52:45;6.50;;;2.83;;
14342;SDS011;7255;53.596;9.960;2023-06-10T01:55:13;5.12;;;2.78;;
14342;SDS011;7255;53.596;9.960;2023-06-10T01:57:39;4.22;;;2.95;;
14342;SDS011;7255;53.596;9.960;2023-06-10T02:00:06;5.70;;;2.92;;
14342;SDS011;7255;53.596;9.960;2023-06-10T02:02:33;6.05;;;2.85;;
14342;SDS011;7255;53.596;9.960;2023-06-10T02:04:59;5.55;;;3.20;;
14342;SDS011;7255;53.596;9.960;2023-06-10T02:07:26;5.47;;;3.00;;
14342;SDS011;7255;53.596;9.960;2023-06-10T02:09:52;2.70;;;2.28;;
14342;SDS011;7255;53.596;9.960;2023-06-10T02:12:20;5.07;;;2.53;;
14342;SDS011;7255;53.596;9.960;2023-06-10T02:14:46;3.92;;;2.60;;
14342;SDS011;7255;53.596;9.960;2023-06-10T02:17:12;5.07;;;3.08;;
14342;SDS011;7255;53.596;9.960;2023-06-10T02:19:39;3.08;;;2.40;;
14342;SDS011;7255;53.596;9.960;2023-06-10T02:22:07;3.10;;;1.92;;
14342;SDS011;7255;53.596;9.960;2023-06-10T02:24:35;9.18;;;2.80;;
14342;SDS011;7255;53.596;9.960;2023-06-10T02:27:01;7.57;;;2.47;;
14342;SDS011;7255;53.596;9.960;2023-06-10T02:29:30;4.97;;;2.40;;
14342;SDS011;7255;53.596;9.960;2023-06-10T02:31:56;9.57;;;2.85;;
14342;SDS011;7255;53.596;9.960;2023-06-10T02:34:22;3.22;;;1.90;;
14342;SDS011;7255;53.596;9.960;2023-06-10T02:36:48;4.72;;;2.50;;
14342;SDS011;7255;53.596;9.960;2023-06-10T02:39:16;4.22;;;2.53;;
14342;SDS011;7255;53.596;9.960;2023-06-10T02:41:42;7.80;;;2.85;;
14342;SDS011;7255;53.596;9.960;2023-06-10T02:44:09;4.10;;;2.15;;
14342;SDS011;7255;53.596;9.960;2023-06-10T02:46:37;3.50;;;1.98;;
14342;SDS011;7255;53.596;9.960;2023-06-10T02:49:03;4.05;;;2.22;;
14342;SDS011;7255;53.596;9.960;2023-06-10T02:51:29;4.07;;;2.08;;
14342;SDS011;7255;53.596;9.960;2023-06-10T02:53:56;5.60;;;2.12;;
14342;SDS011;7255;53.596;9.960;2023-06-10T02:56:22;3.00;;;2.30;;
14342;SDS011;7255;53.596;9.960;2023-06-10T02:58:48;3.75;;;2.33;;
14342;SDS011;7255;53.596;9.960;2023-06-10T03:01:16;8.00;;;2.40;;
14342;SDS011;7255;53.596;9.960;2023-06-10T03:03:45;4.60;;;2.08;;
14342;SDS011;7255;53.596;9.960;2023-06-10T03:06:11;3.67;;;2.28;;
14342;SDS011;7255;53.596;9.960;2023-06-10T03:08:38;2.95;;;2.15;;
14342;SDS011;7255;53.596;9.960;2023-06-10T03:11:04;5.70;;;2.37;;
14342;SDS011;7255;53.596;9.960;2023-06-10T03:13:31;3.28;;;2.03;;
14342;SDS011;7255;53.596;9.960;2023-06-10T03:15:58;5.25;;;2.25;;
14342;SDS011;7255;53.596;9.960;2023-06-10T03:18:25;4.70;;;2.30;;
14342;SDS011;7255;53.596;9.960;2023-06-10T03:20:53;3.47;;;2.05;;
14342;SDS011;7255;53.596;9.960;2023-06-10T03:23:20;3.95;;;1.83;;
14342;SDS011;7255;53.596;9.960;2023-06-10T03:25:46;5.47;;;2.10;;
14342;SDS011;7255;53.596;9.960;2023-06-10T03:28:13;3.05;;;2.08;;
14342;SDS011;7255;53.596;9.960;2023-06-10T03:30:39;5.93;;;2.50;;
14342;SDS011;7255;53.596;9.960;2023-06-10T03:33:05;4.18;;;2.10;;
14342;SDS011;7255;53.596;9.960;2023-06-10T03:35:31;6.40;;;2.45;;
14342;SDS011;7255;53.596;9.960;2023-06-10T03:38:01;3.70;;;2.60;;
14342;SDS011;7255;53.596;9.960;2023-06-10T03:40:27;3.10;;;1.98;;
14342;SDS011;7255;53.596;9.960;2023-06-10T03:42:55;3.10;;;2.20;;
14342;SDS011;7255;53.596;9.960;2023-06-10T03:45:21;6.65;;;2.67;;
14342;SDS011;7255;53.596;9.960;2023-06-10T03:47:48;4.45;;;2.08;;
14342;SDS011;7255;53.596;9.960;2023-06-10T03:50:14;5.28;;;2.20;;
14342;SDS011;7255;53.596;9.960;2023-06-10T03:52:40;3.62;;;1.92;;
14342;SDS011;7255;53.596;9.960;2023-06-10T03:55:08;4.97;;;1.98;;
14342;SDS011;7255;53.596;9.960;2023-06-10T03:57:36;6.78;;;2.00;;
14342;SDS011;7255;53.596;9.960;2023-06-10T04:00:02;3.20;;;2.17;;
14342;SDS011;7255;53.596;9.960;2023-06-10T04:02:33;3.85;;;2.30;;
14342;SDS011;7255;53.596;9.960;2023-06-10T04:04:59;2.80;;;2.08;;
14342;SDS011;7255;53.596;9.960;2023-06-10T04:07:26;3.03;;;1.80;;
14342;SDS011;7255;53.596;9.960;2023-06-10T04:09:53;3.47;;;1.70;;
14342;SDS011;7255;53.596;9.960;2023-06-10T04:12:21;2.40;;;2.00;;
14342;SDS011;7255;53.596;9.960;2023-06-10T04:14:47;2.65;;;2.00;;
14342;SDS011;7255;53.596;9.960;2023-06-10T04:17:13;4.03;;;2.03;;
14342;SDS011;7255;53.596;9.960;2023-06-10T04:19:40;3.00;;;1.90;;
14342;SDS011;7255;53.596;9.960;2023-06-10T04:22:06;2.37;;;1.75;;
14342;SDS011;7255;53.596;9.960;2023-06-10T04:24:32;3.37;;;1.90;;
14342;SDS011;7255;53.596;9.960;2023-06-10T04:26:58;2.10;;;1.90;;
14342;SDS011;7255;53.596;9.960;2023-06-10T04:29:26;4.28;;;1.80;;
14342;SDS011;7255;53.596;9.960;2023-06-10T04:31:53;4.55;;;1.70;;
14342;SDS011;7255;53.596;9.960;2023-06-10T04:34:19;2.85;;;1.80;;
14342;SDS011;7255;53.596;9.960;2023-06-10T04:36:45;3.65;;;1.90;;
14342;SDS011;7255;53.596;9.960;2023-06-10T04:39:12;4.95;;;1.98;;
14342;SDS011;7255;53.596;9.960;2023-06-10T04:41:38;5.72;;;2.03;;
14342;SDS011;7255;53.596;9.960;2023-06-10T04:44:04;4.62;;;2.00;;
14342;SDS011;7255;53.596;9.960;2023-06-10T04:46:32;9.13;;;2.28;;
14342;SDS011;7255;53.596;9.960;2023-06-10T04:48:58;5.05;;;2.10;;
14342;SDS011;7255;53.596;9.960;2023-06-10T04:51:24;2.33;;;1.80;;
14342;SDS011;7255;53.596;9.960;2023-06-10T04:53:51;4.78;;;2.25;;
14342;SDS011;7255;53.596;9.960;2023-06-10T04:56:17;5.25;;;2.35;;
14342;SDS011;7255;53.596;9.960;2023-06-10T04:58:44;3.10;;;2.10;;
14342;SDS011;7255;53.596;9.960;2023-06-10T05:01:10;4.55;;;1.85;;
14342;SDS011;7255;53.596;9.960;2023-06-10T05:03:38;5.25;;;2.30;;
14342;SDS011;7255;53.596;9.960;2023-06-10T05:06:04;4.53;;;1.95;;
14342;SDS011;7255;53.596;9.960;2023-06-10T05:08:31;5.15;;;1.90;;
14342;SDS011;7255;53.596;9.960;2023-06-10T05:10:57;2.67;;;1.70;;
14342;SDS011;7255;53.596;9.960;2023-06-10T05:13:24;4.95;;;1.70;;
14342;SDS011;7255;53.596;9.960;2023-06-10T05:15:50;3.72;;;1.90;;
14342;SDS011;7255;53.596;9.960;2023-06-10T05:18:16;3.65;;;1.67;;
14342;SDS011;7255;53.596;9.960;2023-06-10T05:20:44;4.25;;;2.25;;
14342;SDS011;7255;53.596;9.960;2023-06-10T05:23:10;5.18;;;2.00;;
14342;SDS011;7255;53.596;9.960;2023-06-10T05:25:36;4.47;;;1.75;;
14342;SDS011;7255;53.596;9.960;2023-06-10T05:28:03;2.97;;;1.60;;
14342;SDS011;7255;53.596;9.960;2023-06-10T05:30:29;3.80;;;2.20;;
14342;SDS011;7255;53.596;9.960;2023-06-10T05:32:56;2.45;;;1.80;;
14342;SDS011;7255;53.596;9.960;2023-06-10T05:35:22;3.55;;;1.75;;
14342;SDS011;7255;53.596;9.960;2023-06-10T05:37:50;3.45;;;1.70;;
14342;SDS011;7255;53.596;9.960;2023-06-10T05:40:16;2.28;;;1.50;;
14342;SDS011;7255;53.596;9.960;2023-06-10T05:42:42;3.40;;;1.70;;
14342;SDS011;7255;53.596;9.960;2023-06-10T05:45:09;3.87;;;1.67;;
14342;SDS011;7255;53.596;9.960;2023-06-10T05:47:36;2.15;;;1.55;;
14342;SDS011;7255;53.596;9.960;2023-06-10T05:50:03;3.30;;;1.80;;
14342;SDS011;7255;53.596;9.960;2023-06-10T05:52:32;2.72;;;1.85;;
14342;SDS011;7255;53.596;9.960;2023-06-10T05:54:59;5.10;;;1.95;;
14342;SDS011;7255;53.596;9.960;2023-06-10T05:57:26;5.00;;;1.48;;
14342;SDS011;7255;53.596;9.960;2023-06-10T05:59:52;6.07;;;1.92;;
14342;SDS011;7255;53.596;9.960;2023-06-10T06:02:18;2.97;;;1.62;;
14342;SDS011;7255;53.596;9.960;2023-06-10T06:04:45;4.25;;;1.58;;
14342;SDS011;7255;53.596;9.960;2023-06-10T06:07:11;2.90;;;1.73;;
14342;SDS011;7255;53.596;9.960;2023-06-10T06:09:37;3.30;;;1.80;;
14342;SDS011;7255;53.596;9.960;2023-06-10T06:12:06;4.70;;;1.62;;
14342;SDS011;7255;53.596;9.960;2023-06-10T06:14:36;2.45;;;1.35;;
14342;SDS011;7255;53.596;9.960;2023-06-10T06:17:04;4.90;;;1.45;;
14342;SDS011;7255;53.596;9.960;2023-06-10T06:19:30;3.25;;;2.03;;
14342;SDS011;7255;53.596;9.960;2023-06-10T06:21:57;4.00;;;1.40;;
14342;SDS011;7255;53.596;9.960;2023-06-10T06:24:23;2.85;;;1.50;;
14342;SDS011;7255;53.596;9.960;2023-06-10T06:26:50;4.05;;;1.65;;
14342;SDS011;7255;53.596;9.960;2023-06-10T06:29:17;4.53;;;1.87;;
14342;SDS011;7255;53.596;9.960;2023-06-10T06:31:44;3.37;;;1.73;;
14342;SDS011;7255;53.596;9.960;2023-06-10T06:34:10;4.57;;;1.67;;
14342;SDS011;7255;53.596;9.960;2023-06-10T06:36:36;6.87;;;1.60;;
14342;SDS011;7255;53.596;9.960;2023-06-10T06:39:03;3.78;;;2.22;;
14342;SDS011;7255;53.596;9.960;2023-06-10T06:41:29;2.75;;;1.37;;
14342;SDS011;7255;53.596;9.960;2023-06-10T06:43:55;4.25;;;1.40;;
14342;SDS011;7255;53.596;9.960;2023-06-10T06:46:23;3.72;;;1.50;;
14342;SDS011;7255;53.596;9.960;2023-06-10T06:48:49;5.40;;;1.67;;
14342;SDS011;7255;53.596;9.960;2023-06-10T06:51:16;3.50;;;1.27;;
14342;SDS011;7255;53.596;9.960;2023-06-10T06:53:42;4.82;;;1.92;;
14342;SDS011;7255;53.596;9.960;2023-06-10T06:56:09;2.08;;;1.55;;
14342;SDS011;7255;53.596;9.960;2023-06-10T06:58:36;5.40;;;1.70;;
14342;SDS011;7255;53.596;9.960;2023-06-10T07:01:02;4.55;;;2.58;;
14342;SDS011;7255;53.596;9.960;2023-06-10T07:03:30;2.62;;;2.08;;
14342;SDS011;7255;53.596;9.960;2023-06-10T07:05:57;3.60;;;1.60;;
14342;SDS011;7255;53.596;9.960;2023-06-10T07:08:23;2.00;;;1.62;;
14342;SDS011;7255;53.596;9.960;2023-06-10T07:10:49;4.53;;;1.70;;
14342;SDS011;7255;53.596;9.960;2023-06-10T07:13:16;3.78;;;1.75;;
14342;SDS011;7255;53.596;9.960;2023-06-10T07:15:42;3.75;;;1.80;;
14342;SDS011;7255;53.596;9.960;2023-06-10T07:18:08;3.05;;;1.58;;
14342;SDS011;7255;53.596;9.960;2023-06-10T07:20:36;2.85;;;1.50;;
14342;SDS011;7255;53.596;9.960;2023-06-10T07:23:02;1.30;;;1.20;;
14342;SDS011;7255;53.596;9.960;2023-06-10T07:25:29;4.45;;;1.75;;
14342;SDS011;7255;53.596;9.960;2023-06-10T07:27:55;4.55;;;2.03;;
14342;SDS011;7255;53.596;9.960;2023-06-10T07:30:21;3.22;;;1.77;;
14342;SDS011;7255;53.596;9.960;2023-06-10T07:32:48;4.68;;;2.03;;
14342;SDS011;7255;53.596;9.960;2023-06-10T07:35:16;3.60;;;1.73;;
14342;SDS011;7255;53.596;9.960;2023-06-10T07:37:43;3.50;;;2.10;;
14342;SDS011;7255;53.596;9.960;2023-06-10T07:40:10;4.87;;;1.65;;
14342;SDS011;7255;53.596;9.960;2023-06-10T07:42:37;2.00;;;1.62;;
14342;SDS011;7255;53.596;9.960;2023-06-10T07:45:03;6.55;;;1.77;;
14342;SDS011;7255;53.596;9.960;2023-06-10T07:47:30;2.42;;;1.65;;
14342;SDS011;7255;53.596;9.960;2023-06-10T07:49:59;2.87;;;1.58;;
14342;SDS011;7255;53.596;9.960;2023-06-10T07:52:25;2.72;;;2.15;;
14342;SDS011;7255;53.596;9.960;2023-06-10T07:54:55;3.08;;;1.98;;
14342;SDS011;7255;53.596;9.960;2023-06-10T07:57:21;4.20;;;2.08;;
14342;SDS011;7255;53.596;9.960;2023-06-10T07:59:47;7.25;;;2.17;;
14342;SDS011;7255;53.596;9.960;2023-06-10T08:02:14;2.95;;;2.03;;
14342;SDS011;7255;53.596;9.960;2023-06-10T08:04:40;3.00;;;1.90;;
14342;SDS011;7255;53.596;9.960;2023-06-10T08:07:06;3.03;;;1.77;;
14342;SDS011;7255;53.596;9.960;2023-06-10T08:09:32;3.00;;;1.55;;
14342;SDS011;7255;53.596;9.960;2023-06-10T08:12:01;2.67;;;1.50;;
14342;SDS011;7255;53.596;9.960;2023-06-10T08:14:27;2.37;;;1.58;;
14342;SDS011;7255;53.596;9.960;2023-06-10T08:16:54;3.95;;;2.22;;
14342;SDS011;7255;53.596;9.960;2023-06-10T08:19:20;4.47;;;1.73;;
14342;SDS011;7255;53.596;9.960;2023-06-10T08:21:46;3.40;;;1.92;;
14342;SDS011;7255;53.596;9.960;2023-06-10T08:24:12;2.80;;;1.87;;
14342;SDS011;7255;53.596;9.960;2023-06-10T08:26:41;2.92;;;2.28;;
14342;SDS011;7255;53.596;9.960;2023-06-10T08:29:11;7.28;;;2.33;;
14342;SDS011;7255;53.596;9.960;2023-06-10T08:31:39;4.85;;;1.90;;
14342;SDS011;7255;53.596;9.960;2023-06-10T08:34:07;2.35;;;1.77;;
14342;SDS011;7255;53.596;9.960;2023-06-10T08:36:33;2.85;;;1.65;;
14342;SDS011;7255;53.596;9.960;2023-06-10T08:39:00;4.35;;;1.90;;
14342;SDS011;7255;53.596;9.960;2023-06-10T08:41:27;2.55;;;1.80;;
14342;SDS011;7255;53.596;9.960;2023-06-10T08:43:59;3.10;;;1.50;;
14342;SDS011;7255;53.596;9.960;2023-06-10T08:46:35;3.37;;;1.95;;
14342;SDS011;7255;53.596;9.960;2023-06-10T08:49:03;5.32;;;1.83;;
14342;SDS011;7255;53.596;9.960;2023-06-10T08:51:32;5.70;;;2.05;;
14342;SDS011;7255;53.596;9.960;2023-06-10T08:54:01;4.62;;;2.12;;
14342;SDS011;7255;53.596;9.960;2023-06-10T08:56:28;3.03;;;1.90;;
14342;SDS011;7255;53.596;9.960;2023-06-10T08:58:56;2.08;;;1.90;;
14342;SDS011;7255;53.596;9.960;2023-06-10T09:01:23;2.78;;;1.83;;
14342;SDS011;7255;53.596;9.960;2023-06-10T09:03:53;3.10;;;1.90;;
14342;SDS011;7255;53.596;9.960;2023-06-10T09:06:20;2.87;;;2.03;;
14342;SDS011;7255;53.596;9.960;2023-06-10T09:08:47;3.85;;;2.17;;
14342;SDS011;7255;53.596;9.960;2023-06-10T09:11:14;4.12;;;2.08;;
14342;SDS011;7255;53.596;9.960;2023-06-10T09:13:40;4.62;;;2.90;;
14342;SDS011;7255;53.596;9.960;2023-06-10T09:16:07;3.83;;;2.25;;
14342;SDS011;7255;53.596;9.960;2023-06-10T09:18:33;3.40;;;1.83;;
14342;SDS011;7255;53.596;9.960;2023-06-10T09:21:01;3.72;;;2.33;;
14342;SDS011;7255;53.596;9.960;2023-06-10T09:23:27;3.60;;;2.37;;
14342;SDS011;7255;53.596;9.960;2023-06-10T09:25:57;2.70;;;1.80;;
14342;SDS011;7255;53.596;9.960;2023-06-10T09:28:24;2.87;;;1.83;;
14342;SDS011;7255;53.596;9.960;2023-06-10T09:30:52;2.53;;;2.15;;
14342;SDS011;7255;53.596;9.960;2023-06-10T09:33:28;2.80;;;2.12;;
14342;SDS011;7255;53.596;9.960;2023-06-10T09:35:54;5.50;;;2.62;;
14342;SDS011;7255;53.596;9.960;2023-06-10T09:38:29;2.72;;;2.08;;
14342;SDS011;7255;53.596;9.960;2023-06-10T09:40:56;2.47;;;1.83;;
14342;SDS011;7255;53.596;9.960;2023-06-10T09:43:22;5.07;;;2.08;;
14342;SDS011;7255;53.596;9.960;2023-06-10T09:45:49;2.65;;;2.00;;
14342;SDS011;7255;53.596;9.960;2023-06-10T09:48:17;5.78;;;1.75;;
14342;SDS011;7255;53.596;9.960;2023-06-10T09:50:45;3.15;;;2.10;;
14342;SDS011;7255;53.596;9.960;2023-06-10T09:53:11;2.90;;;2.00;;
14342;SDS011;7255;53.596;9.960;2023-06-10T09:55:39;3.58;;;1.95;;
14342;SDS011;7255;53.596;9.960;2023-06-10T09:58:08;3.37;;;2.22;;
14342;SDS011;7255;53.596;9.960;2023-06-10T10:00:34;5.12;;;2.10;;
14342;SDS011;7255;53.596;9.960;2023-06-10T10:03:00;3.53;;;1.98;;
14342;SDS011;7255;53.596;9.960;2023-06-10T10:05:28;4.55;;;2.45;;
14342;SDS011;7255;53.596;9.960;2023-06-10T10:07:55;4.60;;;2.35;;
14342;SDS011;7255;53.596;9.960;2023-06-10T10:10:22;3.17;;;2.37;;
14342;SDS011;7255;53.596;9.960;2023-06-10T10:12:53;6.57;;;1.98;;
14342;SDS011;7255;53.596;9.960;2023-06-10T10:15:22;2.40;;;2.15;;
14342;SDS011;7255;53.596;9.960;2023-06-10T10:17:52;4.28;;;2.37;;
14342;SDS011;7255;53.596;9.960;2023-06-10T10:20:23;3.42;;;2.17;;
14342;SDS011;7255;53.596;9.960;2023-06-10T10:22:52;3.42;;;2.40;;
14342;SDS011;7255;53.596;9.960;2023-06-10T10:25:23;4.53;;;2.25;;
14342;SDS011;7255;53.596;9.960;2023-06-10T10:27:55;5.62;;;2.40;;
14342;SDS011;7255;53.596;9.960;2023-06-10T10:30:24;4.22;;;2.37;;
14342;SDS011;7255;53.596;9.960;2023-06-10T10:32:55;3.25;;;2.33;;
14342;SDS011;7255;53.596;9.960;2023-06-10T10:35:24;7.05;;;2.78;;
14342;SDS011;7255;53.596;9.960;2023-06-10T10:37:51;3.65;;;2.33;;
14342;SDS011;7255;53.596;9.960;2023-06-10T10:40:18;3.87;;;2.35;;
14342;SDS011;7255;53.596;9.960;2023-06-10T10:42:45;4.12;;;2.53;;
14342;SDS011;7255;53.596;9.960;2023-06-10T10:45:15;4.70;;;2.20;;
14342;SDS011;7255;53.596;9.960;2023-06-10T10:47:41;4.70;;;2.60;;
14342;SDS011;7255;53.596;9.960;2023-06-10T10:50:12;4.45;;;2.20;;
14342;SDS011;7255;53.596;9.960;2023-06-10T10:52:46;3.70;;;2.28;;
14342;SDS011;7255;53.596;9.960;2023-06-10T10:55:17;3.40;;;2.30;;
14342;SDS011;7255;53.596;9.960;2023-06-10T10:57:43;6.72;;;2.40;;
14342;SDS011;7255;53.596;9.960;2023-06-10T11:00:10;5.03;;;2.40;;
14342;SDS011;7255;53.596;9.960;2023-06-10T11:02:40;3.70;;;2.22;;
14342;SDS011;7255;53.596;9.960;2023-06-10T11:05:09;3.30;;;2.55;;
14342;SDS011;7255;53.596;9.960;2023-06-10T11:07:36;4.35;;;2.37;;
14342;SDS011;7255;53.596;9.960;2023-06-10T11:10:05;4.18;;;2.50;;
14342;SDS011;7255;53.596;9.960;2023-06-10T11:12:40;4.22;;;2.10;;
14342;SDS011;7255;53.596;9.960;2023-06-10T11:15:08;4.18;;;2.40;;
14342;SDS011;7255;53.596;9.960;2023-06-10T11:17:34;3.50;;;2.03;;
14342;SDS011;7255;53.596;9.960;2023-06-10T11:20:03;4.40;;;2.10;;
14342;SDS011;7255;53.596;9.960;2023-06-10T11:22:30;5.53;;;2.40;;
14342;SDS011;7255;53.596;9.960;2023-06-10T11:24:56;4.78;;;2.40;;
14342;SDS011;7255;53.596;9.960;2023-06-10T11:27:24;3.60;;;2.50;;
14342;SDS011;7255;53.596;9.960;2023-06-10T11:32:44;4.35;;;2.55;;
14342;SDS011;7255;53.596;9.960;2023-06-10T11:35:12;5.50;;;2.37;;
14342;SDS011;7255;53.596;9.960;2023-06-10T11:37:38;2.83;;;2.17;;
14342;SDS011;7255;53.596;9.960;2023-06-10T11:40:05;3.95;;;2.08;;
14342;SDS011;7255;53.596;9.960;2023-06-10T11:42:33;5.18;;;2.67;;
14342;SDS011;7255;53.596;9.960;2023-06-10T11:45:05;4.18;;;2.78;;
14342;SDS011;7255;53.596;9.960;2023-06-10T11:47:33;4.82;;;2.67;;
14342;SDS011;7255;53.596;9.960;2023-06-10T11:50:00;4.37;;;2.10;;
14342;SDS011;7255;53.596;9.960;2023-06-10T11:52:28;4.45;;;2.87;;
14342;SDS011;7255;53.596;9.960;2023-06-10T11:54:56;3.92;;;2.55;;
14342;SDS011;7255;53.596;9.960;2023-06-10T11:57:23;3.22;;;2.67;;
14342;SDS011;7255;53.596;9.960;2023-06-10T11:59:49;4.82;;;2.67;;
14342;SDS011;7255;53.596;9.960;2023-06-10T12:02:18;4.32;;;2.65;;
14342;SDS011;7255;53.596;9.960;2023-06-10T12:04:45;5.07;;;2.85;;
14342;SDS011;7255;53.596;9.960;2023-06-10T12:07:16;4.87;;;2.90;;
14342;SDS011;7255;53.596;9.960;2023-06-10T12:09:44;3.60;;;2.83;;
14342;SDS011;7255;53.596;9.960;2023-06-10T12:12:11;3.25;;;2.20;;
14342;SDS011;7255;53.596;9.960;2023-06-10T12:14:50;3.53;;;2.50;;
14342;SDS011;7255;53.596;9.960;2023-06-10T12:17:19;5.60;;;3.00;;
14342;SDS011;7255;53.596;9.960;2023-06-10T12:19:47;5.15;;;3.00;;
14342;SDS011;7255;53.596;9.960;2023-06-10T12:22:13;5.37;;;2.90;;
14342;SDS011;7255;53.596;9.960;2023-06-10T12:24:45;4.00;;;2.85;;
14342;SDS011;7255;53.596;9.960;2023-06-10T12:27:12;4.35;;;2.30;;
14342;SDS011;7255;53.596;9.960;2023-06-10T12:29:38;4.72;;;2.40;;
14342;SDS011;7255;53.596;9.960;2023-06-10T12:32:05;3.72;;;2.92;;
14342;SDS011;7255;53.596;9.960;2023-06-10T12:34:33;3.70;;;2.62;;
14342;SDS011;7255;53.596;9.960;2023-06-10T12:37:01;6.20;;;2.85;;
14342;SDS011;7255;53.596;9.960;2023-06-10T12:39:29;4.10;;;3.08;;
14342;SDS011;7255;53.596;9.960;2023-06-10T12:41:57;3.87;;;2.75;;
14342;SDS011;7255;53.596;9.960;2023-06-10T12:44:34;5.87;;;3.03;;
14342;SDS011;7255;53.596;9.960;2023-06-10T12:47:01;4.85;;;3.45;;
14342;SDS011;7255;53.596;9.960;2023-06-10T12:49:33;4.50;;;2.85;;
14342;SDS011;7255;53.596;9.960;2023-06-10T12:52:01;4.80;;;3.35;;
14342;SDS011;7255;53.596;9.960;2023-06-10T12:54:27;2.97;;;2.55;;
14342;SDS011;7255;53.596;9.960;2023-06-10T12:56:53;5.15;;;3.08;;
14342;SDS011;7255;53.596;9.960;2023-06-10T12:59:21;5.43;;;3.10;;
14342;SDS011;7255;53.596;9.960;2023-06-10T13:01:49;4.82;;;2.60;;
14342;SDS011;7255;53.596;9.960;2023-06-10T13:04:16;6.35;;;2.87;;
14342;SDS011;7255;53.596;9.960;2023-06-10T13:06:43;3.90;;;2.83;;
14342;SDS011;7255;53.596;9.960;2023-06-10T13:09:09;5.45;;;2.83;;
14342;SDS011;7255;53.596;9.960;2023-06-10T13:11:36;6.53;;;3.30;;
14342;SDS011;7255;53.596;9.960;2023-06-10T13:14:02;4.55;;;2.78;;
14342;SDS011;7255;53.596;9.960;2023-06-10T13:16:30;4.87;;;3.05;;
14342;SDS011;7255;53.596;9.960;2023-06-10T13:18:57;4.00;;;2.83;;
14342;SDS011;7255;53.596;9.960;2023-06-10T13:21:23;4.15;;;2.60;;
14342;SDS011;7255;53.596;9.960;2023-06-10T13:23:50;3.25;;;2.60;;
14342;SDS011;7255;53.596;9.960;2023-06-10T13:26:16;3.75;;;2.67;;
14342;SDS011;7255;53.596;9.960;2023-06-10T13:28:43;4.50;;;2.60;;
14342;SDS011;7255;53.596;9.960;2023-06-10T13:31:09;3.90;;;2.80;;
14342;SDS011;7255;53.596;9.960;2023-06-10T13:33:37;5.32;;;2.62;;
14342;SDS011;7255;53.596;9.960;2023-06-10T13:36:04;5.68;;;2.40;;
14342;SDS011;7255;53.596;9.960;2023-06-10T13:38:31;4.37;;;2.47;;
14342;SDS011;7255;53.596;9.960;2023-06-10T13:40:57;3.97;;;2.47;;
14342;SDS011;7255;53.596;9.960;2023-06-10T13:43:23;4.05;;;2.40;;
14342;SDS011;7255;53.596;9.960;2023-06-10T13:45:49;4.25;;;2.33;;
14342;SDS011;7255;53.596;9.960;2023-06-10T13:48:16;4.37;;;2.30;;
14342;SDS011;7255;53.596;9.960;2023-06-10T13:50:44;5.68;;;2.60;;
14342;SDS011;7255;53.596;9.960;2023-06-10T13:53:11;3.40;;;2.50;;
14342;SDS011;7255;53.596;9.960;2023-06-10T13:55:37;3.55;;;2.05;;
14342;SDS011;7255;53.596;9.960;2023-06-10T13:58:03;5.70;;;2.53;;
14342;SDS011;7255;53.596;9.960;2023-06-10T14:00:30;3.83;;;2.20;;
14342;SDS011;7255;53.596;9.960;2023-06-10T14:02:56;3.92;;;2.22;;
14342;SDS011;7255;53.596;9.960;2023-06-10T14:05:22;3.58;;;2.30;;
14342;SDS011;7255;53.596;9.960;2023-06-10T14:07:50;3.17;;;1.95;;
14342;SDS011;7255;53.596;9.960;2023-06-10T14:10:16;2.80;;;2.00;;
14342;SDS011;7255;53.596;9.960;2023-06-10T14:12:43;5.70;;;2.80;;
14342;SDS011;7255;53.596;9.960;2023-06-10T14:15:09;4.03;;;2.15;;
14342;SDS011;7255;53.596;9.960;2023-06-10T14:17:36;5.20;;;2.03;;
14342;SDS011;7255;53.596;9.960;2023-06-10T14:20:02;3.67;;;2.35;;
14342;SDS011;7255;53.596;9.960;2023-06-10T14:22:30;4.55;;;3.15;;
14342;SDS011;7255;53.596;9.960;2023-06-10T14:24:58;3.85;;;1.80;;
14342;SDS011;7255;53.596;9.960;2023-06-10T14:27:24;5.47;;;2.08;;
14342;SDS011;7255;53.596;9.960;2023-06-10T14:29:50;4.37;;;2.20;;
14342;SDS011;7255;53.596;9.960;2023-06-10T14:32:17;4.22;;;2.53;;
14342;SDS011;7255;53.596;9.960;2023-06-10T14:34:43;3.95;;;2.00;;
14342;SDS011;7255;53.596;9.960;2023-06-10T14:37:09;4.18;;;2.20;;
14342;SDS011;7255;53.596;9.960;2023-06-10T14:39:36;4.22;;;2.10;;
14342;SDS011;7255;53.596;9.960;2023-06-10T14:42:04;4.87;;;2.55;;
14342;SDS011;7255;53.596;9.960;2023-06-10T14:44:31;4.25;;;2.17;;
14342;SDS011;7255;53.596;9.960;2023-06-10T14:46:57;4.43;;;2.12;;
14342;SDS011;7255;53.596;9.960;2023-06-10T14:49:23;3.92;;;2.28;;
14342;SDS011;7255;53.596;9.960;2023-06-10T14:51:50;2.50;;;2.28;;
14342;SDS011;7255;53.596;9.960;2023-06-10T14:54:16;3.55;;;2.20;;
14342;SDS011;7255;53.596;9.960;2023-06-10T14:56:42;5.97;;;2.70;;
14342;SDS011;7255;53.596;9.960;2023-06-10T14:59:10;4.05;;;2.33;;
14342;SDS011;7255;53.596;9.960;2023-06-10T15:01:36;3.78;;;2.53;;
14342;SDS011;7255;53.596;9.960;2023-06-10T15:04:03;4.25;;;2.42;;